• Join FlightAware (Why Join?)
  • Login
  • US Flag 
03:58PM EDT


 

Airport Tracker/Info


-or-


 

Live Flight TrackerFlight Track Log ✈ N6198F ✈ 29-11-2013 ✈ KHSV - KGAD

Flight Track Log - Related Links

Times and Time Zones

All times are in EST time to prevent confusion due to time zone crossing. See the N6198F flight status page for this flight to view local times or setup timezone preferences in your user account.

Time Position Orientation Groundspeed Altitude Reporting Facility
EST Latitude Longitude Course Direction KTS MPH feet Rate Location/Type
03:26PM 34.5869 -86.7325 139° Southeast 90 104 3,000  Level Memphis Center
03:27PM 34.5675 -86.7064 132° Southeast 96 110 3,100  Climbing Memphis Center
03:28PM 34.5433 -86.6706 129° Southeast 106 122 3,000 -60 Descending Memphis Center
03:29PM 34.5217 -86.6431 134° Southeast 110 127 3,000 -60 Level Memphis Center
03:30PM 34.4903 -86.6221 139° Southeast  Level Estimated
03:30PM 34.5003 -86.6147 132° Southeast 112 129 2,900  Level Memphis Center
03:31PM 34.4658 -86.5967 139° Southeast  Level Estimated
03:31PM 34.4792 -86.5886 134° Southeast 111 128 2,900  Level Memphis Center
03:32PM 34.4558 -86.5664 142° Southeast 108 124 2,900  Level Memphis Center
03:33PM 34.4281 -86.5494 153° Southeast 108 124 2,900  Level Memphis Center
03:35PM 34.3920 -86.5123 140° Southeast  Level FlightAware Approximate
03:42PM 34.2195 -86.3361 140° Southeast  Level FlightAware Approximate
03:43PM 34.1947 -86.3112 140° Southeast  Level FlightAware Approximate
03:44PM 34.1698 -86.2863 140° Southeast  Level FlightAware Approximate
03:45PM 34.1450 -86.2615 140° Southeast  Level FlightAware Approximate
03:46PM 34.1202 -86.2366 140° Southeast  Level FlightAware Approximate
03:47PM 34.0953 -86.2118 140° Southeast  Level FlightAware Approximate
03:48PM 34.0704 -86.1870 140° Southeast  Level FlightAware Approximate
03:49PM 34.0456 -86.1622 140° Southeast  Level FlightAware Approximate
03:50PM 34.0207 -86.1374 140° Southeast  Level FlightAware Approximate
03:51PM 33.9959 -86.1126 140° Southeast  Level FlightAware Approximate
03:52PM 33.9711 -86.0878 140° Southeast  Level FlightAware Approximate
03:53PM 33.9667 -86.0833 140° Southeast  Level FlightAware Approximate
03:54PM 33.9726 -86.0891 140° Southeast  Level Estimated
03:55PM 33.9726 -86.0891 140° Southeast  Level Estimated
03:56PM 33.9726 -86.0891 140° Southeast  Level Estimated
03:57PM 33.9726 -86.0891 140° Southeast  Level Estimated
03:58PM 33.9726 -86.0891 140° Southeast  Level Estimated
03:59PM 33.9726 -86.0891 140° Southeast  Level Estimated
04:00PM 33.9726 -86.0891 140° Southeast  Level Estimated
04:01PM 33.9726 -86.0891 140° Southeast  Level Estimated
04:02PM 33.9726 -86.0891 140° Southeast  Level Estimated
04:03PM 33.9726 -86.0891 140° Southeast  Level Estimated
04:04PM 33.9726 -86.0891 140° Southeast  Level Estimated
04:05PM 33.9726 -86.0891 140° Southeast  Level Estimated
04:06PM 33.9726 -86.0891 140° Southeast  Level Estimated